Terminal Aerodrome Forecast
Issued by NWS

Home | Current Version | Previous Version | Text Only | Print | Product List | Glossary On
Versions: 1 2 3 4 5 6 7 8 9 10 11 12 13
911
FTUS45 KRIW 051720
TAFBPI
TAF
KBPI 051720Z 0518/0618 VRB05KT P6SM SCT080 BKN150
     FM051900 20013G21KT P6SM VCSH SCT070 BKN090
     FM060200 33008KT P6SM SCT080 BKN100
     FM061100 VRB05KT P6SM VCSH SCT040 BKN080=

USA.gov is the U.S. government's official web portal to all federal, state and local government web resources and services.